Time;durP1;ratioP1;P1;durP2;ratioP2;P2;SDS_P1;SDS_P2;PMS_P1;PMS_P2;Temp;Humidity;BMP_temperature;BMP_pressure;BME280_temperature;BME280_humidity;BME280_pressure;Samples;Min_cycle;Max_cycle;Signal;HPM_P1;HPM_P2
2022/11/29 04:05:47;;;;;;;73.93;26.00;;;;;;;;;;5198747;23;20478;-91
2022/11/29 04:08:19;;;;;;;76.75;24.38;;;;;;;;;;4939699;29;20509;-90
2022/11/29 04:10:57;;;;;;;100.63;27.40;;;;;;;;;;4940864;29;20203;-89
2022/11/29 04:13:35;;;;;;;97.17;26.77;;;;;;;;;;4942932;29;20434;-91
2022/11/29 04:16:07;;;;;;;90.20;25.30;;;;;;;;;;4932551;29;20481;-90
2022/11/29 04:18:51;;;;;;;84.30;26.63;;;;;;;;;;4944107;29;20513;-90
2022/11/29 04:21:36;;;;;;;94.87;24.33;;;;;;;;;;4939774;29;20418;-92
2022/11/29 04:24:14;;;;;;;80.60;24.80;;;;;;;;;;4944047;28;20765;-90
2022/11/29 04:26:59;;;;;;;90.63;25.40;;;;;;;;;;4946064;29;20422;-90
2022/11/29 04:29:37;;;;;;;77.37;24.77;;;;;;;;;;4946228;29;20450;-90
2022/11/29 04:32:13;;;;;;;63.63;23.23;;;;;;;;;;4928539;29;20527;-89
2022/11/29 04:34:42;;;;;;;68.60;23.67;;;;;;;;;;4918823;29;20436;-89
2022/11/29 04:37:30;;;;;;;74.97;26.07;;;;;;;;;;4924572;29;20451;-90
2022/11/29 04:40:07;;;;;;;83.53;24.67;;;;;;;;;;4922507;29;20471;-89
2022/11/29 04:42:49;;;;;;;77.03;24.80;;;;;;;;;;4911472;29;20476;-90
2022/11/29 04:45:36;;;;;;;61.20;23.10;;;;;;;;;;4924556;29;20471;-90
2022/11/29 04:48:05;;;;;;;74.27;22.53;;;;;;;;;;4925667;29;20479;-89
2022/11/29 04:50:51;;;;;;;71.43;23.13;;;;;;;;;;4916690;29;20993;-89
2022/11/29 04:53:36;;;;;;;85.83;21.77;;;;;;;;;;4929329;29;20431;-90
2022/11/29 04:56:14;;;;;;;72.17;21.83;;;;;;;;;;4910028;29;21033;-90
2022/11/29 04:58:44;;;;;;;72.43;23.47;;;;;;;;;;4938626;29;20443;-89
2022/11/29 05:01:25;;;;;;;53.37;20.87;;;;;;;;;;4939868;28;20427;-90
2022/11/29 05:04:01;;;;;;;53.90;20.00;;;;;;;;;;4926233;29;20450;-89
2022/11/29 05:06:45;;;;;;;59.30;20.60;;;;;;;;;;4923677;29;20442;-90
2022/11/29 05:09:29;;;;;;;68.93;21.60;;;;;;;;;;4909288;29;20448;-89
2022/11/29 05:12:03;;;;;;;67.47;24.40;;;;;;;;;;4916250;29;20448;-88
2022/11/29 05:14:48;;;;;;;57.00;19.70;;;;;;;;;;4911203;29;20498;-89
2022/11/29 05:17:16;;;;;;;57.73;20.40;;;;;;;;;;4938414;29;20483;-88
2022/11/29 05:19:49;;;;;;;53.67;19.90;;;;;;;;;;4944413;29;20681;-89
2022/11/29 05:22:25;;;;;;;55.70;19.33;;;;;;;;;;4933398;29;20485;-88
2022/11/29 05:25:00;;;;;;;55.53;18.20;;;;;;;;;;4912610;29;20447;-89
2022/11/29 05:27:46;;;;;;;51.53;18.57;;;;;;;;;;4920681;29;20467;-88
2022/11/29 05:30:14;;;;;;;69.43;18.60;;;;;;;;;;4910418;29;20455;-88
2022/11/29 05:32:43;;;;;;;52.20;17.63;;;;;;;;;;4907540;29;20470;-86
2022/11/29 05:35:28;;;;;;;49.00;24.20;;;;;;;;;;4912848;29;20486;-90
2022/11/29 05:38:04;;;;;;;48.23;19.40;;;;;;;;;;4934222;29;20429;-88
2022/11/29 05:40:40;;;;;;;44.70;16.90;;;;;;;;;;4927223;29;20430;-88
2022/11/29 05:43:21;;;;;;;52.20;18.87;;;;;;;;;;4908640;29;20478;-88
2022/11/29 05:46:06;;;;;;;45.17;18.47;;;;;;;;;;4911528;29;21028;-88
2022/11/29 05:48:44;;;;;;;49.40;19.20;;;;;;;;;;4905608;29;20838;-90
2022/11/29 05:51:30;;;;;;;56.93;19.23;;;;;;;;;;4898912;29;20530;-89
2022/11/29 05:53:57;;;;;;;40.63;18.30;;;;;;;;;;4913647;29;20435;-89
2022/11/29 05:56:23;;;;;;;43.30;16.00;;;;;;;;;;4909805;29;20504;-90
2022/11/29 05:58:51;;;;;;;39.00;16.80;;;;;;;;;;4915667;29;20466;-90
2022/11/29 06:01:20;;;;;;;58.70;17.20;;;;;;;;;;4899527;29;20486;-88
2022/11/29 06:04:10;;;;;;;37.70;17.97;;;;;;;;;;4912861;29;20454;-89
2022/11/29 06:06:43;;;;;;;45.67;17.57;;;;;;;;;;4901898;29;20448;-86
2022/11/29 06:09:23;;;;;;;44.10;15.50;;;;;;;;;;4926516;29;20462;-89
2022/11/29 06:12:01;;;;;;;46.33;15.50;;;;;;;;;;4913102;29;20435;-89
2022/11/29 06:14:46;;;;;;;43.08;17.27;;;;;;;;;;4911124;29;20566;-89
2022/11/29 06:17:25;;;;;;;43.53;18.10;;;;;;;;;;4913826;29;20199;-87
2022/11/29 06:20:03;;;;;;;50.27;21.37;;;;;;;;;;4904882;29;20443;-90
2022/11/29 06:23:07;;;;;;;52.03;18.67;;;;;;;;;;4917953;29;21202;-89
2022/11/29 06:25:36;;;;;;;52.53;18.30;;;;;;;;;;4855854;29;21060;-89
2022/11/29 06:28:17;;;;;;;46.00;19.50;;;;;;;;;;4842104;29;20731;-89
2022/11/29 06:30:49;;;;;;;45.03;18.23;;;;;;;;;;4887341;29;21051;-89
2022/11/29 06:33:19;;;;;;;44.10;16.97;;;;;;;;;;4918554;29;20434;-88
2022/11/29 06:36:03;;;;;;;48.63;17.83;;;;;;;;;;4918223;29;20485;-91
2022/11/29 06:38:30;;;;;;;46.23;17.40;;;;;;;;;;4919520;29;20485;-89
2022/11/29 06:41:08;;;;;;;40.03;18.23;;;;;;;;;;4919232;29;20426;-90
2022/11/29 06:43:36;;;;;;;45.47;18.67;;;;;;;;;;4919177;29;21020;-90
2022/11/29 06:46:02;;;;;;;46.83;15.00;;;;;;;;;;4938637;29;20498;-86
2022/11/29 06:48:34;;;;;;;45.17;18.80;;;;;;;;;;4914968;29;20743;-89
2022/11/29 06:51:07;;;;;;;39.30;17.00;;;;;;;;;;4938997;29;20438;-89
2022/11/29 06:53:39;;;;;;;38.37;17.07;;;;;;;;;;4918762;29;20442;-86
2022/11/29 06:56:24;;;;;;;51.13;18.10;;;;;;;;;;4934880;29;20538;-89
2022/11/29 06:58:52;;;;;;;42.87;17.50;;;;;;;;;;4941334;29;20431;-89
2022/11/29 07:01:22;;;;;;;38.57;16.50;;;;;;;;;;4941551;29;20441;-88
2022/11/29 07:03:54;;;;;;;37.10;16.40;;;;;;;;;;4944513;29;20518;-89
2022/11/29 07:06:22;;;;;;;47.27;18.13;;;;;;;;;;4917366;29;20462;-88
2022/11/29 07:08:56;;;;;;;47.07;17.80;;;;;;;;;;4923250;29;20443;-88
2022/11/29 07:11:22;;;;;;;38.70;17.30;;;;;;;;;;4944996;29;20991;-90
2022/11/29 07:13:48;;;;;;;48.20;17.83;;;;;;;;;;4936202;29;20441;-86
2022/11/29 07:16:33;;;;;;;35.30;17.50;;;;;;;;;;4917165;29;20463;-90
2022/11/29 07:19:09;;;;;;;45.73;16.10;;;;;;;;;;4918348;29;20427;-88
2022/11/29 07:21:54;;;;;;;50.90;17.50;;;;;;;;;;4909515;29;20439;-87
2022/11/29 07:24:26;;;;;;;40.57;16.60;;;;;;;;;;4918661;29;20427;-88
2022/11/29 07:26:58;;;;;;;42.87;18.80;;;;;;;;;;4916237;29;20451;-88
2022/11/29 07:29:37;;;;;;;46.27;18.27;;;;;;;;;;4230386;29;10000690;-89
2022/11/29 07:32:03;;;;;;;46.03;18.10;;;;;;;;;;4929245;28;20183;-89
2022/11/29 07:34:54;;;;;;;40.07;17.23;;;;;;;;;;4934203;29;20518;-89
2022/11/29 07:37:20;;;;;;;55.47;18.97;;;;;;;;;;4908306;29;20580;-88
2022/11/29 07:39:58;;;;;;;54.23;20.43;;;;;;;;;;4924013;29;20420;-88
2022/11/29 07:42:24;;;;;;;35.93;17.20;;;;;;;;;;4908901;29;20612;-89
2022/11/29 07:45:10;;;;;;;43.23;17.27;;;;;;;;;;4917867;29;20435;-91
2022/11/29 07:47:36;;;;;;;60.13;17.00;;;;;;;;;;4899292;29;20446;-89
2022/11/29 07:50:03;;;;;;;38.90;17.57;;;;;;;;;;4916012;29;20431;-89
2022/11/29 07:52:36;;;;;;;38.10;17.23;;;;;;;;;;4915727;29;20483;-89
2022/11/29 07:55:02;;;;;;;47.93;17.83;;;;;;;;;;4916961;29;20914;-89
2022/11/29 07:57:35;;;;;;;49.73;17.60;;;;;;;;;;4931102;29;20577;-89
2022/11/29 08:00:17;;;;;;;43.27;17.90;;;;;;;;;;4932282;29;20419;-90
2022/11/29 08:02:47;;;;;;;36.73;17.60;;;;;;;;;;4923686;29;20499;-90
2022/11/29 08:05:14;;;;;;;50.05;21.05;;;;;;;;;;4946479;29;20490;-89
2022/11/29 08:07:43;;;;;;;46.23;19.13;;;;;;;;;;4932489;29;20426;-89
2022/11/29 08:10:25;;;;;;;49.73;19.97;;;;;;;;;;4929161;29;20837;-87
2022/11/29 08:12:55;;;;;;;56.17;19.70;;;;;;;;;;4925708;29;20400;-87
2022/11/29 08:28:41;;;;;;;58.00;20.93;;;;;;;;;;5028532;23;20491;-90
2022/11/29 08:31:12;;;;;;;57.60;22.40;;;;;;;;;;4928014;29;20501;-86
2022/11/29 09:23:02;;;;;;;35.63;17.33;;;;;;;;;;5311559;23;20584;-88
2022/11/29 09:25:56;;;;;;;57.53;20.63;;;;;;;;;;4961957;28;20856;-92
2022/11/29 09:28:24;;;;;;;56.53;22.33;;;;;;;;;;4949352;28;20493;-89
2022/11/29 09:59:47;;;;;;;68.20;28.10;;;;;;;;;;5060120;23;20443;-93
2022/11/29 10:23:05;;;;;;;73.80;24.73;;;;;;;;;;5598943;23;20865;-91
2022/11/29 10:25:50;;;;;;;75.67;27.07;;;;;;;;;;4975007;28;20425;-86
2022/11/29 10:28:18;;;;;;;64.40;23.80;;;;;;;;;;4975732;28;20446;-87
2022/11/29 10:30:45;;;;;;;69.77;25.60;;;;;;;;;;4963864;28;20535;-91
2022/11/29 10:33:21;;;;;;;73.80;26.13;;;;;;;;;;4954183;29;20441;-92
2022/11/29 10:35:50;;;;;;;74.03;25.10;;;;;;;;;;4951346;29;20411;-90
2022/11/29 10:38:17;;;;;;;65.17;24.67;;;;;;;;;;4952176;29;20439;-89
2022/11/29 10:40:46;;;;;;;85.60;25.17;;;;;;;;;;4948934;29;20445;-89
2022/11/29 10:43:16;;;;;;;64.85;24.25;;;;;;;;;;4948833;28;20481;-91
2022/11/29 10:45:44;;;;;;;67.37;26.57;;;;;;;;;;4952630;29;20227;-89
2022/11/29 10:48:18;;;;;;;79.77;25.50;;;;;;;;;;4950135;29;20506;-90
2022/11/29 10:51:01;;;;;;;81.00;26.73;;;;;;;;;;4954044;29;20435;-87
2022/11/29 11:39:11;;;;;;;87.03;29.33;;;;;;;;;;4919290;29;20953;-89
2022/11/29 11:44:48;;;;;;;78.30;29.57;;;;;;;;;;4920745;29;20428;-87
2022/11/29 11:47:24;;;;;;;83.93;29.00;;;;;;;;;;4912499;29;20454;-87
2022/11/29 11:50:09;;;;;;;74.53;25.17;;;;;;;;;;4923092;29;20531;-86
2022/11/29 11:52:36;;;;;;;92.53;28.73;;;;;;;;;;4924063;29;20460;-88
2022/11/29 11:55:05;;;;;;;86.33;29.83;;;;;;;;;;4916674;29;21009;-88
2022/11/29 11:57:34;;;;;;;89.60;31.30;;;;;;;;;;4927595;29;20443;-88
2022/11/29 12:00:01;;;;;;;106.13;31.70;;;;;;;;;;4918203;29;20412;-86
2022/11/29 12:02:47;;;;;;;75.87;26.33;;;;;;;;;;4927584;29;20542;-90
2022/11/29 12:05:16;;;;;;;96.63;31.63;;;;;;;;;;4912241;29;20444;-89
2022/11/29 12:07:57;;;;;;;79.30;29.90;;;;;;;;;;4928497;29;20440;-89
2022/11/29 12:10:28;;;;;;;102.13;32.63;;;;;;;;;;4919091;29;20503;-87
2022/11/29 12:12:55;;;;;;;95.30;30.93;;;;;;;;;;4941400;29;20757;-88
2022/11/29 12:15:37;;;;;;;94.23;32.97;;;;;;;;;;4927901;29;20428;-89
2022/11/29 12:18:06;;;;;;;97.67;30.20;;;;;;;;;;4928352;29;20427;-89
2022/11/29 12:20:33;;;;;;;76.50;29.23;;;;;;;;;;4933720;29;20455;-89
2022/11/29 12:23:08;;;;;;;102.43;33.87;;;;;;;;;;4933508;29;20833;-89
2022/11/29 12:25:47;;;;;;;101.97;34.07;;;;;;;;;;4928897;29;20500;-86
2022/11/29 12:28:14;;;;;;;81.77;32.10;;;;;;;;;;4955455;29;20700;-85
2022/11/29 12:30:59;;;;;;;87.17;30.80;;;;;;;;;;4932988;29;20466;-88
2022/11/29 12:33:31;;;;;;;107.20;33.33;;;;;;;;;;4932288;29;20436;-90
2022/11/29 12:36:07;;;;;;;88.97;33.30;;;;;;;;;;4933500;29;20487;-88
2022/11/29 12:38:48;;;;;;;107.30;34.10;;;;;;;;;;4921122;29;20508;-85
2022/11/29 12:41:32;;;;;;;108.87;34.90;;;;;;;;;;4927183;29;20727;-91
2022/11/29 12:44:12;;;;;;;104.40;34.53;;;;;;;;;;4241212;29;10000731;-89
2022/11/29 12:46:39;;;;;;;117.67;38.63;;;;;;;;;;4922355;29;20199;-90
2022/11/29 12:49:31;;;;;;;127.23;38.77;;;;;;;;;;4923214;29;20456;-89
2022/11/29 14:26:43;;;;;;;112.77;39.30;;;;;;;;;;5162492;23;10002103;-89
2022/11/29 14:29:29;;;;;;;125.03;37.60;;;;;;;;;;4900439;29;20188;-90
2022/11/29 14:31:55;;;;;;;117.10;42.20;;;;;;;;;;4889310;29;20456;-87
2022/11/29 15:40:35;;;;;;;133.10;36.00;;;;;;;;;;4919066;29;20470;-89
2022/11/29 15:43:04;;;;;;;119.10;38.53;;;;;;;;;;4925089;29;21032;-89
2022/11/29 15:45:34;;;;;;;112.03;36.07;;;;;;;;;;4908801;29;20954;-92
2022/11/29 15:48:28;;;;;;;123.50;38.30;;;;;;;;;;4914214;29;20430;-93
2022/11/29 15:51:28;;;;;;;115.47;35.57;;;;;;;;;;4918241;29;20447;-92
2022/11/29 16:09:38;;;;;;;101.27;32.93;;;;;;;;;;5646361;23;20477;-85
2022/11/29 21:55:42;;;;;;;60.10;26.00;;;;;;;;;;5050512;23;10001597;-89
2022/11/29 21:58:47;;;;;;;64.03;26.10;;;;;;;;;;4903665;29;20360;-87
2022/11/29 22:01:32;;;;;;;63.00;25.70;;;;;;;;;;4889378;29;20451;-88
2022/11/29 22:04:30;;;;;;;60.37;26.50;;;;;;;;;;4908868;29;20570;-88
